createdAt,value
2022-12-27T00:01:57.437Z,9.20
2022-12-27T00:04:24.285Z,7.97
2022-12-27T00:06:51.165Z,8.65
2022-12-27T00:09:18.181Z,9.85
2022-12-27T00:11:46.598Z,10.07
2022-12-27T00:14:13.519Z,8.07
2022-12-27T00:16:40.837Z,8.45
2022-12-27T00:21:37.744Z,11.68
2022-12-27T00:24:04.915Z,7.82
2022-12-27T00:26:34.445Z,9.80
2022-12-27T00:29:02.483Z,10.23
2022-12-27T00:31:31.529Z,8.98
2022-12-27T00:34:07.394Z,9.63
2022-12-27T00:36:35.080Z,8.18
2022-12-27T00:39:02.300Z,8.82
2022-12-27T00:41:29.228Z,7.82
2022-12-27T00:43:56.500Z,8.98
2022-12-27T00:46:23.554Z,7.97
2022-12-27T00:48:50.543Z,8.07
2022-12-27T00:51:21.052Z,8.43
2022-12-27T00:53:48.570Z,8.57
2022-12-27T00:56:18.429Z,8.20
2022-12-27T00:58:46.797Z,9.70
2022-12-27T01:01:16.643Z,9.10
2022-12-27T01:06:13.504Z,8.20
2022-12-27T01:08:40.847Z,9.23
2022-12-27T01:11:24.596Z,9.05
2022-12-27T01:13:58.849Z,8.57
2022-12-27T01:16:27.471Z,9.90
2022-12-27T01:18:55.197Z,8.88
2022-12-27T01:21:25.158Z,10.07
2022-12-27T01:26:23.173Z,9.40
2022-12-27T01:28:51.051Z,9.38
2022-12-27T01:31:24.883Z,8.70
2022-12-27T01:33:56.921Z,9.13
2022-12-27T01:36:25.641Z,9.50
2022-12-27T01:38:52.952Z,10.38
2022-12-27T01:41:38.507Z,10.27
2022-12-27T01:44:40.010Z,9.80
2022-12-27T01:47:12.858Z,9.60
2022-12-27T01:49:42.357Z,9.77
2022-12-27T01:52:10.749Z,10.23
2022-12-27T01:54:37.870Z,10.18
2022-12-27T01:57:05.802Z,10.68
2022-12-27T01:59:34.001Z,12.05
2022-12-27T02:02:01.505Z,11.25
2022-12-27T02:04:31.093Z,11.02
2022-12-27T02:06:59.268Z,10.18
2022-12-27T02:09:44.880Z,11.40
2022-12-27T02:12:12.015Z,9.88
2022-12-27T02:14:44.635Z,10.45
2022-12-27T02:17:17.481Z,11.48
2022-12-27T02:19:50.345Z,11.52
2022-12-27T02:23:23.061Z,11.82
2022-12-27T02:26:05.955Z,10.98
2022-12-27T02:29:00.701Z,11.43
2022-12-27T02:32:03.301Z,10.65
2022-12-27T02:34:43.996Z,11.95
2022-12-27T02:37:13.735Z,11.38
2022-12-27T02:39:45.946Z,10.00
2022-12-27T02:42:47.113Z,9.70
2022-12-27T02:45:38.796Z,10.32
2022-12-27T02:48:32.295Z,9.68
2022-12-27T02:51:35.865Z,10.82
2022-12-27T02:54:19.705Z,11.32
2022-12-27T02:57:10.086Z,10.13
2022-12-27T03:00:07.985Z,10.55
2022-12-27T03:03:24.249Z,10.13
2022-12-27T03:06:11.086Z,9.77
2022-12-27T03:08:58.250Z,10.80
2022-12-27T03:11:48.128Z,11.30
2022-12-27T03:14:45.214Z,11.00
2022-12-27T03:17:25.925Z,10.80
2022-12-27T03:20:17.686Z,10.63
2022-12-27T03:23:06.196Z,11.15
2022-12-27T03:25:35.199Z,10.38
2022-12-27T03:28:28.627Z,10.95
2022-12-27T03:31:20.926Z,10.90
2022-12-27T03:33:50.583Z,11.07
2022-12-27T03:36:40.639Z,10.80
2022-12-27T03:42:20.671Z,11.05
2022-12-27T03:44:48.000Z,12.32
2022-12-27T03:47:24.472Z,12.45
2022-12-27T03:49:59.686Z,12.40
2022-12-27T03:52:42.203Z,13.25
2022-12-27T03:55:10.988Z,12.75
2022-12-27T03:57:38.667Z,14.00
2022-12-27T04:00:06.835Z,12.65
2022-12-27T04:02:40.910Z,13.43
2022-12-27T04:05:08.491Z,14.40
2022-12-27T04:07:35.333Z,13.73
2022-12-27T04:10:20.724Z,14.88
2022-12-27T04:13:06.251Z,13.57
2022-12-27T04:15:51.717Z,13.52
2022-12-27T04:18:37.171Z,15.63
2022-12-27T04:21:22.664Z,13.80
2022-12-27T04:24:08.705Z,16.65
2022-12-27T04:26:54.225Z,16.42
2022-12-27T04:29:39.540Z,16.85
2022-12-27T04:32:24.981Z,16.38
2022-12-27T04:34:51.834Z,17.00
2022-12-27T04:37:20.106Z,17.00
2022-12-27T04:40:09.013Z,18.13
2022-12-27T04:42:54.690Z,16.23
2022-12-27T04:45:40.355Z,15.68
2022-12-27T04:48:31.522Z,16.08
2022-12-27T04:51:17.728Z,19.13
2022-12-27T04:54:03.236Z,16.33
2022-12-27T04:56:30.164Z,17.30
2022-12-27T04:59:15.422Z,15.70
2022-12-27T05:02:01.466Z,14.88
2022-12-27T05:04:28.439Z,14.23
2022-12-27T05:06:56.556Z,15.27
2022-12-27T05:09:42.310Z,14.75
2022-12-27T05:12:30.273Z,16.23
2022-12-27T05:14:57.202Z,15.25
2022-12-27T05:17:24.031Z,15.32
2022-12-27T05:19:50.919Z,14.65
2022-12-27T05:22:46.935Z,13.77
2022-12-27T05:25:32.503Z,13.95
2022-12-27T05:27:59.429Z,14.02
2022-12-27T05:30:26.498Z,16.40
2022-12-27T05:32:56.821Z,14.98
2022-12-27T05:35:23.957Z,13.70
2022-12-27T05:37:54.890Z,15.15
2022-12-27T05:40:23.362Z,16.13
2022-12-27T05:42:50.498Z,14.27
2022-12-27T05:45:17.863Z,15.70
2022-12-27T05:47:44.945Z,17.75
2022-12-27T05:50:12.264Z,16.25
2022-12-27T05:52:41.243Z,15.88
2022-12-27T05:55:09.444Z,15.82
2022-12-27T05:57:36.368Z,16.52
2022-12-27T06:00:05.492Z,14.40
2022-12-27T06:02:40.199Z,16.23
2022-12-27T06:05:07.543Z,14.85
2022-12-27T06:07:36.965Z,15.90
2022-12-27T06:10:06.741Z,14.40
2022-12-27T06:12:33.783Z,15.15
2022-12-27T06:15:03.828Z,14.88
2022-12-27T06:19:59.175Z,15.52
2022-12-27T06:22:26.057Z,15.90
2022-12-27T06:24:52.988Z,14.63
2022-12-27T06:27:19.961Z,14.07
2022-12-27T06:29:46.815Z,14.85
2022-12-27T06:32:13.713Z,16.05
2022-12-27T06:34:40.639Z,15.13
2022-12-27T06:37:07.706Z,17.42
2022-12-27T06:39:34.582Z,15.93
2022-12-27T06:42:01.442Z,16.90
2022-12-27T06:44:28.371Z,16.00
2022-12-27T06:46:55.308Z,16.83
2022-12-27T06:49:22.138Z,16.20
2022-12-27T06:51:55.669Z,16.15
2022-12-27T06:54:26.254Z,15.50
2022-12-27T06:56:53.111Z,15.90
2022-12-27T06:59:20.062Z,16.90
2022-12-27T07:01:47.231Z,18.23
2022-12-27T07:04:14.176Z,17.63
2022-12-27T07:06:41.149Z,16.20
2022-12-27T07:09:08.662Z,17.25
2022-12-27T07:11:37.063Z,17.50
2022-12-27T07:14:04.948Z,15.73
2022-12-27T07:16:32.044Z,16.23
2022-12-27T07:18:59.568Z,16.20
2022-12-27T07:21:28.429Z,15.65
2022-12-27T07:23:56.215Z,16.73
2022-12-27T07:26:29.070Z,17.58
2022-12-27T07:29:02.804Z,17.42
2022-12-27T07:31:35.404Z,18.17
2022-12-27T07:34:14.220Z,18.60
2022-12-27T07:36:54.442Z,18.30
2022-12-27T07:39:21.437Z,17.77
2022-12-27T07:41:48.287Z,17.70
2022-12-27T07:44:18.225Z,16.00
2022-12-27T07:46:45.934Z,17.98
2022-12-27T07:49:17.615Z,17.92
2022-12-27T07:51:50.892Z,16.42
2022-12-27T07:54:17.792Z,17.95
2022-12-27T07:56:44.604Z,21.95
2022-12-27T07:59:13.331Z,20.90
2022-12-27T08:02:02.973Z,21.05
2022-12-27T08:04:30.256Z,20.55
2022-12-27T08:07:03.199Z,18.77
2022-12-27T08:09:37.101Z,15.90
2022-12-27T08:12:05.270Z,17.05
2022-12-27T08:14:38.161Z,17.02
2022-12-27T08:17:20.829Z,16.30
2022-12-27T08:19:48.070Z,17.52
2022-12-27T08:22:15.536Z,18.52
2022-12-27T08:24:42.502Z,17.98
2022-12-27T08:27:09.770Z,20.90
2022-12-27T08:29:39.448Z,21.50
2022-12-27T08:32:09.098Z,21.90
2022-12-27T08:34:36.110Z,23.67
2022-12-27T08:37:02.894Z,23.95
2022-12-27T08:39:30.476Z,23.73
2022-12-27T08:41:57.506Z,27.05
2022-12-27T08:44:24.374Z,24.75
2022-12-27T08:46:51.654Z,24.17
2022-12-27T08:49:20.905Z,25.33
2022-12-27T08:51:47.773Z,25.67
2022-12-27T08:54:14.856Z,22.95
2022-12-27T08:56:41.731Z,23.23
2022-12-27T08:59:08.715Z,23.15
2022-12-27T09:01:35.796Z,22.15
2022-12-27T09:04:02.827Z,23.13
2022-12-27T09:06:29.686Z,22.92
2022-12-27T09:09:02.840Z,23.55
2022-12-27T09:11:33.319Z,25.00
2022-12-27T09:14:03.277Z,23.25
2022-12-27T09:16:30.958Z,23.10
2022-12-27T09:18:59.183Z,22.83
2022-12-27T09:21:28.677Z,24.48
2022-12-27T09:23:56.109Z,25.08
2022-12-27T09:26:29.029Z,25.25
2022-12-27T09:28:56.885Z,25.38
2022-12-27T09:31:24.917Z,24.60
2022-12-27T09:33:53.047Z,24.90
2022-12-27T09:36:23.033Z,25.17
2022-12-27T09:44:46.257Z,25.40
2022-12-27T09:47:16.744Z,25.20
2022-12-27T09:49:49.224Z,25.65
2022-12-27T09:52:56.619Z,22.55
2022-12-27T09:55:41.106Z,24.23
2022-12-27T09:58:34.203Z,26.48
2022-12-27T10:01:02.561Z,29.67
2022-12-27T10:03:31.093Z,29.52
2022-12-27T10:06:22.537Z,29.23
2022-12-27T10:09:10.053Z,30.15
2022-12-27T10:11:42.919Z,29.25
2022-12-27T10:14:15.821Z,31.58
2022-12-27T10:17:05.863Z,31.95
2022-12-27T10:22:26.406Z,31.73
2022-12-27T10:24:57.270Z,33.45
2022-12-27T10:27:26.638Z,30.98
2022-12-27T10:29:55.864Z,28.85
2022-12-27T10:32:23.147Z,29.48
2022-12-27T10:35:01.449Z,20.30
2022-12-27T10:37:28.886Z,20.30
2022-12-27T10:40:15.382Z,20.42
2022-12-27T10:42:47.636Z,19.05
2022-12-27T10:45:36.428Z,20.88
2022-12-27T10:48:25.112Z,20.40
2022-12-27T10:50:59.998Z,21.55
2022-12-27T10:53:38.860Z,23.45
2022-12-27T10:56:12.967Z,23.55
2022-12-27T10:58:56.616Z,22.90
2022-12-27T11:01:28.151Z,22.67
2022-12-27T11:04:22.261Z,28.48
2022-12-27T11:07:18.447Z,23.50
2022-12-27T11:09:50.707Z,23.52
2022-12-27T11:12:26.327Z,24.13
2022-12-27T11:15:11.312Z,22.73
2022-12-27T11:17:42.326Z,23.20
2022-12-27T11:20:14.905Z,20.52
2022-12-27T11:22:48.627Z,21.17
2022-12-27T11:25:16.499Z,22.42
2022-12-27T11:27:53.788Z,20.50
2022-12-27T11:30:31.924Z,17.70
2022-12-27T11:33:25.166Z,13.40
2022-12-27T11:35:56.475Z,12.10
2022-12-27T11:38:26.610Z,13.18
2022-12-27T11:41:09.631Z,12.30
2022-12-27T11:44:00.944Z,11.20
2022-12-27T11:46:55.487Z,11.38
2022-12-27T11:49:36.562Z,11.10
2022-12-27T11:52:37.147Z,9.90
2022-12-27T11:55:38.371Z,9.52
2022-12-27T11:58:23.699Z,8.48
2022-12-27T12:01:54.809Z,8.38
2022-12-27T12:04:40.472Z,6.82
2022-12-27T12:07:39.655Z,7.50
2022-12-27T12:10:27.848Z,10.30
2022-12-27T12:13:17.816Z,9.68
2022-12-27T12:16:12.725Z,9.30
2022-12-27T12:18:45.497Z,7.82
2022-12-27T12:21:47.243Z,8.13
2022-12-27T12:24:32.496Z,7.95
2022-12-27T12:27:10.999Z,8.82
2022-12-27T12:30:04.968Z,8.25
2022-12-27T12:33:04.003Z,10.23
2022-12-27T12:36:22.004Z,8.23
2022-12-27T12:39:09.720Z,7.68
2022-12-27T12:41:47.939Z,8.23
2022-12-27T12:44:41.318Z,8.27
2022-12-27T12:47:14.619Z,9.73
2022-12-27T12:49:58.762Z,9.82
2022-12-27T12:52:43.615Z,9.15
2022-12-27T12:55:33.439Z,9.13
2022-12-27T12:58:12.643Z,9.57
2022-12-27T13:00:45.103Z,9.90
2022-12-27T13:03:53.153Z,9.10
2022-12-27T13:06:47.337Z,7.93
2022-12-27T13:09:35.129Z,8.00
2022-12-27T13:12:28.141Z,8.60
2022-12-27T13:15:21.214Z,9.05
2022-12-27T13:18:18.737Z,8.93
2022-12-27T13:21:02.060Z,8.93
2022-12-27T13:23:44.064Z,10.73
2022-12-27T13:26:10.885Z,11.05
2022-12-27T13:29:04.884Z,11.60
2022-12-27T13:31:47.654Z,13.82
2022-12-27T13:34:36.783Z,13.30
2022-12-27T13:37:14.893Z,14.90
2022-12-27T13:40:01.647Z,14.35
2022-12-27T13:42:51.685Z,14.02
2022-12-27T13:47:58.989Z,11.50
2022-12-27T13:50:53.755Z,14.82
2022-12-27T13:53:52.130Z,11.15
2022-12-27T13:56:54.064Z,11.75
2022-12-27T13:59:49.016Z,11.57
2022-12-27T14:02:37.291Z,11.77
2022-12-27T14:05:41.251Z,11.75
2022-12-27T14:08:32.386Z,11.77
2022-12-27T14:11:01.276Z,13.52
2022-12-27T14:13:43.346Z,10.95
2022-12-27T14:16:19.282Z,11.07
2022-12-27T14:19:07.786Z,11.20
2022-12-27T14:21:56.384Z,14.13
2022-12-27T14:24:29.317Z,12.63
2022-12-27T14:27:14.562Z,12.98
2022-12-27T14:30:00.180Z,13.35
2022-12-27T14:33:04.317Z,14.65
2022-12-27T14:35:42.976Z,12.73
2022-12-27T14:38:28.067Z,12.63
2022-12-27T14:41:16.763Z,11.52
2022-12-27T14:44:10.748Z,9.95
2022-12-27T14:46:40.529Z,9.75
2022-12-27T14:49:54.056Z,11.95
2022-12-27T14:52:42.827Z,7.10
2022-12-27T14:55:21.745Z,6.97
2022-12-27T14:57:54.918Z,11.35
2022-12-27T15:00:24.735Z,6.90
2022-12-27T15:03:34.744Z,6.90
2022-12-27T15:06:19.960Z,7.05
2022-12-27T15:09:20.183Z,7.32
2022-12-27T15:14:49.251Z,7.55
2022-12-27T15:17:34.477Z,9.18
2022-12-27T15:20:20.948Z,8.93
2022-12-27T15:22:53.659Z,8.95
2022-12-27T15:25:49.619Z,9.10
2022-12-27T15:28:55.970Z,8.35
2022-12-27T15:31:35.816Z,7.50
2022-12-27T15:34:17.060Z,6.93
2022-12-27T15:36:50.672Z,7.40
2022-12-27T15:39:35.728Z,7.82
2022-12-27T15:42:14.711Z,7.47
2022-12-27T15:45:03.318Z,7.03
2022-12-27T15:47:58.246Z,7.75
2022-12-27T15:50:35.158Z,7.00
2022-12-27T15:53:10.821Z,6.63
2022-12-27T15:55:59.613Z,6.93
2022-12-27T15:58:29.388Z,7.47
2022-12-27T16:01:25.445Z,6.63
2022-12-27T16:03:54.981Z,6.97
2022-12-27T16:06:49.202Z,7.13
2022-12-27T16:09:23.013Z,7.43
2022-12-27T16:12:02.209Z,7.20
2022-12-27T16:14:35.081Z,7.87
2022-12-27T16:17:46.968Z,7.70
2022-12-27T16:20:19.469Z,6.93
2022-12-27T16:22:49.332Z,7.65
2022-12-27T16:25:30.406Z,8.25
2022-12-27T16:28:08.197Z,7.40
2022-12-27T16:30:50.968Z,7.57
2022-12-27T16:33:26.526Z,7.18
2022-12-27T16:36:12.007Z,7.03
2022-12-27T16:39:02.412Z,6.57
2022-12-27T16:41:35.496Z,5.80
2022-12-27T16:44:02.312Z,6.15
2022-12-27T16:46:54.062Z,6.22
2022-12-27T16:49:49.066Z,6.10
2022-12-27T16:52:46.271Z,17.33
2022-12-27T16:55:44.101Z,7.03
2022-12-27T16:58:29.158Z,5.80
2022-12-27T17:01:01.576Z,6.38
2022-12-27T17:03:44.010Z,6.72
2022-12-27T17:06:35.468Z,7.22
2022-12-27T17:09:08.254Z,8.30
2022-12-27T17:11:41.983Z,8.27
2022-12-27T17:14:28.320Z,9.18
2022-12-27T17:16:58.819Z,10.88
2022-12-27T17:19:43.280Z,10.18
2022-12-27T17:22:17.751Z,11.40
2022-12-27T17:24:46.530Z,11.15
2022-12-27T17:27:34.985Z,10.27
2022-12-27T17:30:30.888Z,9.23
2022-12-27T17:33:07.159Z,10.93
2022-12-27T17:35:55.173Z,9.65
2022-12-27T17:38:48.067Z,12.52
2022-12-27T17:42:11.177Z,11.07
2022-12-27T17:44:59.504Z,11.68
2022-12-27T17:47:44.959Z,11.27
2022-12-27T17:50:17.899Z,10.95
2022-12-27T17:53:29.357Z,12.05
2022-12-27T17:56:39.508Z,10.48
2022-12-27T17:59:15.152Z,11.13
2022-12-27T18:01:51.584Z,9.15
2022-12-27T18:04:29.300Z,10.00
2022-12-27T18:07:00.455Z,9.93
2022-12-27T18:09:35.185Z,10.32
2022-12-27T18:12:09.267Z,9.55
2022-12-27T18:14:36.669Z,9.90
2022-12-27T18:17:03.836Z,10.52
2022-12-27T18:19:32.359Z,10.57
2022-12-27T18:22:02.003Z,10.77
2022-12-27T18:24:33.778Z,10.45
2022-12-27T18:27:06.821Z,10.15
2022-12-27T18:29:34.481Z,8.60
2022-12-27T18:32:08.117Z,7.43
2022-12-27T18:34:46.042Z,7.85
2022-12-27T18:37:18.967Z,8.20
2022-12-27T18:39:51.273Z,7.93
2022-12-27T18:42:44.907Z,8.00
2022-12-27T18:45:27.014Z,8.45
2022-12-27T18:47:58.104Z,10.27
2022-12-27T18:50:27.927Z,9.68
2022-12-27T18:53:04.333Z,7.93
2022-12-27T18:55:32.374Z,8.25
2022-12-27T18:58:25.945Z,6.72
2022-12-27T19:01:01.715Z,6.80
2022-12-27T19:03:29.397Z,7.15
2022-12-27T19:06:01.893Z,7.25
2022-12-27T19:08:50.056Z,7.38
2022-12-27T19:11:36.586Z,7.95
2022-12-27T19:14:05.127Z,6.40
2022-12-27T19:16:34.965Z,6.70
2022-12-27T19:19:10.615Z,6.88
2022-12-27T19:21:39.463Z,13.98
2022-12-27T19:24:41.829Z,6.32
2022-12-27T19:27:23.935Z,6.80
2022-12-27T19:29:52.537Z,8.07
2022-12-27T19:32:26.410Z,8.15
2022-12-27T19:34:57.588Z,8.57
2022-12-27T19:37:29.495Z,8.75
2022-12-27T19:39:57.408Z,7.65
2022-12-27T19:42:31.362Z,7.63
2022-12-27T19:44:58.364Z,7.57
2022-12-27T19:47:27.474Z,7.47
2022-12-27T19:49:54.508Z,6.90
2022-12-27T19:52:24.274Z,7.60
2022-12-27T19:54:55.423Z,6.88
2022-12-27T19:57:22.619Z,7.40
2022-12-27T19:59:49.459Z,7.18
2022-12-27T20:02:18.335Z,7.78
2022-12-27T20:04:45.548Z,7.60
2022-12-27T20:07:20.591Z,6.80
2022-12-27T20:09:47.543Z,6.25
2022-12-27T20:12:16.368Z,7.15
2022-12-27T20:14:43.284Z,6.25
2022-12-27T20:17:10.133Z,6.20
2022-12-27T20:19:37.024Z,6.72
2022-12-27T20:22:05.485Z,6.57
2022-12-27T20:24:33.210Z,7.40
2022-12-27T20:27:00.009Z,7.15
2022-12-27T20:29:27.723Z,7.53
2022-12-27T20:31:56.896Z,7.15
2022-12-27T20:34:23.842Z,7.90
2022-12-27T20:36:52.329Z,7.10
2022-12-27T20:39:19.329Z,7.18
2022-12-27T20:41:46.202Z,7.32
2022-12-27T20:44:15.006Z,7.22
2022-12-27T20:46:41.879Z,9.13
2022-12-27T20:49:09.063Z,7.47
2022-12-27T20:51:36.010Z,7.75
2022-12-27T20:54:03.958Z,7.80
2022-12-27T20:56:31.211Z,7.38
2022-12-27T20:58:58.167Z,8.02
2022-12-27T21:01:26.149Z,7.20
2022-12-27T21:03:56.161Z,7.78
2022-12-27T21:06:27.020Z,8.38
2022-12-27T21:08:57.100Z,7.95
2022-12-27T21:11:28.624Z,8.07
2022-12-27T21:13:55.852Z,9.10
2022-12-27T21:16:26.186Z,10.02
2022-12-27T21:18:53.741Z,9.98
2022-12-27T21:21:25.683Z,9.32
2022-12-27T21:23:55.047Z,9.27
2022-12-27T21:26:25.110Z,9.60
2022-12-27T21:31:19.701Z,9.63
2022-12-27T21:33:47.341Z,10.05
2022-12-27T21:36:20.296Z,8.98
2022-12-27T21:38:48.149Z,9.48
2022-12-27T21:41:26.695Z,8.30
2022-12-27T21:43:54.005Z,9.07
2022-12-27T21:46:26.425Z,9.32
2022-12-27T21:48:59.040Z,9.07
2022-12-27T21:51:26.995Z,20.27
2022-12-27T21:53:54.234Z,11.02
2022-12-27T21:56:21.760Z,11.43
2022-12-27T21:58:48.895Z,9.05
2022-12-27T22:01:21.966Z,10.45
2022-12-27T22:03:51.136Z,10.45
2022-12-27T22:06:27.036Z,10.68
2022-12-27T22:08:56.666Z,10.35
2022-12-27T22:11:24.501Z,10.63
2022-12-27T22:13:51.914Z,10.68
2022-12-27T22:16:30.304Z,11.38
2022-12-27T22:18:57.318Z,11.05
2022-12-27T22:21:32.081Z,10.52
2022-12-27T22:24:01.008Z,11.77
2022-12-27T22:26:37.511Z,13.73
2022-12-27T22:29:06.436Z,10.90
2022-12-27T22:31:35.339Z,10.93
2022-12-27T22:34:03.891Z,13.93
2022-12-27T22:36:31.482Z,11.82
2022-12-27T22:38:59.819Z,11.57
2022-12-27T22:41:29.571Z,11.45
2022-12-27T22:44:07.814Z,10.85
2022-12-27T22:49:22.751Z,11.00
2022-12-27T22:51:51.942Z,11.43
2022-12-27T22:54:18.769Z,10.03
2022-12-27T22:56:45.551Z,9.75
2022-12-27T22:59:14.864Z,10.82
2022-12-27T23:01:42.521Z,10.15
2022-12-27T23:04:12.879Z,10.75
2022-12-27T23:06:40.590Z,11.48
2022-12-27T23:09:08.242Z,11.10
2022-12-27T23:11:37.962Z,9.35
2022-12-27T23:14:14.283Z,10.98
2022-12-27T23:16:48.013Z,7.90
2022-12-27T23:19:17.855Z,9.50
2022-12-27T23:21:45.147Z,8.52
2022-12-27T23:24:12.398Z,8.93
2022-12-27T23:26:40.395Z,10.07
2022-12-27T23:29:07.575Z,11.00
2022-12-27T23:31:34.866Z,11.52
2022-12-27T23:34:01.823Z,10.40
2022-12-27T23:36:30.871Z,11.27
2022-12-27T23:38:58.415Z,11.07
2022-12-27T23:41:26.337Z,14.20
2022-12-27T23:43:56.083Z,13.30
2022-12-27T23:46:28.531Z,13.13
2022-12-27T23:48:59.611Z,14.70
2022-12-27T23:51:28.418Z,14.02
2022-12-27T23:53:55.778Z,14.13
2022-12-27T23:56:28.339Z,14.00
2022-12-27T23:58:59.078Z,15.50
